createdAt,value
2022-11-03T00:01:48.876Z,0.10
2022-11-03T00:04:16.925Z,0.10
2022-11-03T00:06:46.133Z,0.30
2022-11-03T00:09:15.141Z,0.20
2022-11-03T00:11:42.836Z,0.10
2022-11-03T00:14:10.151Z,0.08
2022-11-03T00:16:37.645Z,0.10
2022-11-03T00:19:05.057Z,0.03
2022-11-03T00:21:32.098Z,0.10
2022-11-03T00:23:59.288Z,0.13
2022-11-03T00:26:27.339Z,0.10
2022-11-03T00:28:55.562Z,0.00
2022-11-03T00:31:24.875Z,0.20
2022-11-03T00:33:52.275Z,0.00
2022-11-03T00:36:21.086Z,0.10
2022-11-03T00:38:48.417Z,0.00
2022-11-03T00:41:15.667Z,0.20
2022-11-03T00:43:42.866Z,0.00
2022-11-03T00:46:10.081Z,0.00
2022-11-03T00:48:37.492Z,0.00
2022-11-03T00:51:21.172Z,0.00
2022-11-03T00:53:52.518Z,0.20
2022-11-03T00:56:22.149Z,0.00
2022-11-03T00:58:49.525Z,0.00
2022-11-03T01:01:17.246Z,0.00
2022-11-03T01:04:04.398Z,0.00
2022-11-03T01:06:50.075Z,0.32
2022-11-03T01:09:39.234Z,0.20
2022-11-03T01:12:10.406Z,0.00
2022-11-03T01:14:44.409Z,0.00
2022-11-03T01:17:13.232Z,0.00
2022-11-03T01:19:40.376Z,0.08
2022-11-03T01:22:10.652Z,0.00
2022-11-03T01:24:41.121Z,0.00
2022-11-03T01:27:09.303Z,0.00
2022-11-03T01:29:36.242Z,0.00
2022-11-03T01:32:05.395Z,0.00
2022-11-03T01:34:32.428Z,0.00
2022-11-03T01:36:59.506Z,0.00
2022-11-03T01:39:26.396Z,0.00
2022-11-03T01:41:53.380Z,0.00
2022-11-03T01:44:28.168Z,0.00
2022-11-03T01:47:04.908Z,0.00
2022-11-03T01:49:38.932Z,0.00
2022-11-03T01:52:14.874Z,0.00
2022-11-03T01:54:42.293Z,0.00
2022-11-03T01:57:13.652Z,0.15
2022-11-03T01:59:40.822Z,0.00
2022-11-03T02:02:07.866Z,0.00
2022-11-03T02:04:35.041Z,0.00
2022-11-03T02:07:18.735Z,0.00
2022-11-03T02:09:45.767Z,0.00
2022-11-03T02:12:12.668Z,0.00
2022-11-03T02:14:45.501Z,0.00
2022-11-03T02:17:13.144Z,0.00
2022-11-03T02:19:52.673Z,0.22
2022-11-03T02:22:51.030Z,0.00
2022-11-03T02:25:39.768Z,0.00
2022-11-03T02:28:06.983Z,0.00
2022-11-03T02:31:05.168Z,0.00
2022-11-03T02:33:54.768Z,0.00
2022-11-03T02:36:28.794Z,0.00
2022-11-03T02:39:36.265Z,0.00
2022-11-03T02:42:03.452Z,0.00
2022-11-03T02:44:30.346Z,0.00
2022-11-03T02:47:01.939Z,0.00
2022-11-03T02:49:29.094Z,0.00
2022-11-03T02:52:03.271Z,0.00
2022-11-03T02:54:37.153Z,0.00
2022-11-03T02:57:16.515Z,0.00
2022-11-03T02:59:46.488Z,0.00
2022-11-03T03:02:16.299Z,0.00
2022-11-03T03:04:50.100Z,0.00
2022-11-03T03:07:19.793Z,0.00
2022-11-03T03:09:53.750Z,0.10
2022-11-03T03:12:20.649Z,0.00
2022-11-03T03:14:47.703Z,0.00
2022-11-03T03:17:16.083Z,0.00
2022-11-03T03:20:14.391Z,0.10
2022-11-03T03:23:01.459Z,0.10
2022-11-03T03:25:41.019Z,0.00
2022-11-03T03:28:13.626Z,0.10
2022-11-03T03:30:40.551Z,0.00
2022-11-03T03:33:08.234Z,0.10
2022-11-03T03:35:35.798Z,0.03
2022-11-03T03:38:05.994Z,0.08
2022-11-03T03:40:35.585Z,0.10
2022-11-03T03:43:02.936Z,0.10
2022-11-03T03:45:30.027Z,0.00
2022-11-03T03:47:57.916Z,0.22
2022-11-03T03:50:25.696Z,0.20
2022-11-03T03:52:57.568Z,0.10
2022-11-03T03:57:52.685Z,0.00
2022-11-03T04:00:22.426Z,0.15
2022-11-03T04:02:49.314Z,0.10
2022-11-03T04:05:16.282Z,0.20
2022-11-03T04:07:48.859Z,0.10
2022-11-03T04:10:16.998Z,0.05
2022-11-03T04:13:02.880Z,0.10
2022-11-03T04:15:49.182Z,0.10
2022-11-03T04:18:35.167Z,0.08
2022-11-03T04:21:20.458Z,0.05
2022-11-03T04:23:47.427Z,0.00
2022-11-03T04:26:16.227Z,0.10
2022-11-03T04:28:43.181Z,0.00
2022-11-03T04:31:13.532Z,0.15
2022-11-03T04:33:41.559Z,0.00
2022-11-03T04:36:21.625Z,0.10
2022-11-03T04:38:49.778Z,0.10
2022-11-03T04:41:39.090Z,0.10
2022-11-03T04:44:11.199Z,0.47
2022-11-03T04:46:38.118Z,0.00
2022-11-03T04:49:05.013Z,0.15
2022-11-03T04:51:33.314Z,0.10
2022-11-03T04:54:10.159Z,0.00
2022-11-03T04:56:37.133Z,0.00
2022-11-03T04:59:05.297Z,0.10
2022-11-03T05:01:32.463Z,0.00
2022-11-03T05:03:59.578Z,0.00
2022-11-03T05:06:28.072Z,0.00
2022-11-03T05:09:02.811Z,0.10
2022-11-03T05:11:31.356Z,0.00
2022-11-03T05:14:03.470Z,0.00
2022-11-03T05:16:30.812Z,0.00
2022-11-03T05:18:57.742Z,0.00
2022-11-03T05:21:25.674Z,0.00
2022-11-03T05:24:03.174Z,0.00
2022-11-03T05:26:31.519Z,0.03
2022-11-03T05:29:02.551Z,0.00
2022-11-03T05:31:30.858Z,0.00
2022-11-03T05:33:59.268Z,0.00
2022-11-03T05:36:27.952Z,0.10
2022-11-03T05:38:58.703Z,0.00
2022-11-03T05:41:27.789Z,0.10
2022-11-03T05:44:01.763Z,0.10
2022-11-03T05:46:57.073Z,0.20
2022-11-03T05:49:24.020Z,0.00
2022-11-03T05:51:50.906Z,0.00
2022-11-03T05:54:26.131Z,0.10
2022-11-03T05:56:53.269Z,0.00
2022-11-03T05:59:23.083Z,0.00
2022-11-03T06:01:50.148Z,0.05
2022-11-03T06:04:34.266Z,0.30
2022-11-03T06:07:03.582Z,0.00
2022-11-03T06:09:30.440Z,0.10
2022-11-03T06:11:58.185Z,0.10
2022-11-03T06:14:26.364Z,0.00
2022-11-03T06:17:02.100Z,0.32
2022-11-03T06:19:39.588Z,0.08
2022-11-03T06:22:14.098Z,0.32
2022-11-03T06:24:41.065Z,0.03
2022-11-03T06:27:16.474Z,0.00
2022-11-03T06:29:43.923Z,0.00
2022-11-03T06:32:10.934Z,0.00
2022-11-03T06:34:41.978Z,0.00
2022-11-03T06:37:32.417Z,0.00
2022-11-03T06:40:02.237Z,0.00
2022-11-03T06:42:32.232Z,0.00
2022-11-03T06:44:59.324Z,0.00
2022-11-03T06:47:27.945Z,0.00
2022-11-03T06:49:59.168Z,0.00
2022-11-03T06:52:30.820Z,0.08
2022-11-03T06:55:21.976Z,0.13
2022-11-03T06:57:49.255Z,0.25
2022-11-03T07:00:40.070Z,0.00
2022-11-03T07:03:08.637Z,0.00
2022-11-03T07:05:35.848Z,0.00
2022-11-03T07:08:27.534Z,0.22
2022-11-03T07:11:02.435Z,0.00
2022-11-03T07:13:31.482Z,0.20
2022-11-03T07:15:58.480Z,0.20
2022-11-03T07:18:37.892Z,0.28
2022-11-03T07:21:15.837Z,0.00
2022-11-03T07:23:46.255Z,0.05
2022-11-03T07:26:14.381Z,0.10
2022-11-03T07:28:44.334Z,0.32
2022-11-03T07:31:18.667Z,0.00
2022-11-03T07:34:19.149Z,0.00
2022-11-03T07:36:50.083Z,0.22
2022-11-03T07:39:21.427Z,0.10
2022-11-03T07:41:48.539Z,0.25
2022-11-03T07:44:18.214Z,0.00
2022-11-03T07:46:45.090Z,0.00
2022-11-03T07:49:25.838Z,0.10
2022-11-03T07:51:53.050Z,0.00
2022-11-03T07:54:21.208Z,0.35
2022-11-03T07:57:03.568Z,0.10
2022-11-03T07:59:37.406Z,0.20
2022-11-03T08:02:17.849Z,0.30
2022-11-03T08:04:44.966Z,1.50
2022-11-03T08:07:11.968Z,1.13
2022-11-03T08:09:38.947Z,1.65
2022-11-03T08:12:06.133Z,1.55
2022-11-03T08:14:34.139Z,1.10
2022-11-03T08:17:01.250Z,0.98
2022-11-03T08:19:28.227Z,0.20
2022-11-03T08:21:55.149Z,0.10
2022-11-03T08:24:22.228Z,0.15
2022-11-03T08:26:54.402Z,0.00
2022-11-03T08:29:21.582Z,0.00
2022-11-03T08:31:48.522Z,0.10
2022-11-03T08:34:15.433Z,0.00
2022-11-03T08:36:42.359Z,0.00
2022-11-03T08:39:09.326Z,0.00
2022-11-03T08:41:36.401Z,0.10
2022-11-03T08:44:03.289Z,0.00
2022-11-03T08:46:30.188Z,0.00
2022-11-03T08:48:57.097Z,0.25
2022-11-03T08:51:24.112Z,0.00
2022-11-03T08:53:53.869Z,0.00
2022-11-03T08:56:22.663Z,0.00
2022-11-03T08:58:49.883Z,0.00
2022-11-03T09:01:16.874Z,0.10
2022-11-03T09:03:43.947Z,0.25
2022-11-03T09:06:10.947Z,0.10
2022-11-03T09:11:25.566Z,0.10
2022-11-03T09:13:52.933Z,0.00
2022-11-03T09:16:20.048Z,0.00
2022-11-03T09:18:47.221Z,0.00
2022-11-03T09:21:15.090Z,0.00
2022-11-03T09:23:42.341Z,0.00
2022-11-03T09:26:09.468Z,0.00
2022-11-03T09:28:36.384Z,0.00
2022-11-03T09:31:03.264Z,0.28
2022-11-03T09:33:30.148Z,0.05
2022-11-03T09:35:57.024Z,0.10
2022-11-03T09:38:23.974Z,0.00
2022-11-03T09:41:29.089Z,0.10
2022-11-03T09:44:07.222Z,0.32
2022-11-03T09:46:35.236Z,0.00
2022-11-03T09:49:02.531Z,0.10
2022-11-03T09:51:29.625Z,0.00
2022-11-03T09:53:58.055Z,0.00
2022-11-03T09:56:25.122Z,0.10
2022-11-03T09:58:54.445Z,0.08
2022-11-03T10:01:22.536Z,0.20
2022-11-03T10:03:50.129Z,0.03
2022-11-03T10:06:17.444Z,0.10
2022-11-03T10:08:46.030Z,0.10
2022-11-03T10:11:13.258Z,0.00
2022-11-03T10:13:41.838Z,0.10
2022-11-03T10:16:10.137Z,0.00
2022-11-03T10:18:37.358Z,0.00
2022-11-03T10:21:20.920Z,0.15
2022-11-03T10:23:50.191Z,0.00
2022-11-03T10:26:19.229Z,0.00
2022-11-03T10:29:05.264Z,0.00
2022-11-03T10:31:41.763Z,0.20
2022-11-03T10:34:27.537Z,0.05
2022-11-03T10:37:17.533Z,0.08
2022-11-03T10:39:47.818Z,0.00
2022-11-03T10:42:35.516Z,0.00
2022-11-03T10:45:19.308Z,0.00
2022-11-03T10:48:01.172Z,0.10
2022-11-03T10:50:28.328Z,0.00
2022-11-03T10:52:55.294Z,0.00
2022-11-03T10:55:25.184Z,0.00
2022-11-03T10:57:56.045Z,0.00
2022-11-03T11:00:24.379Z,0.00
2022-11-03T11:02:56.724Z,0.17
2022-11-03T11:05:24.198Z,0.00
2022-11-03T11:07:52.519Z,0.00
2022-11-03T11:10:31.348Z,0.00
2022-11-03T11:13:21.696Z,0.00
2022-11-03T11:15:48.683Z,0.00
2022-11-03T11:18:27.842Z,0.20
2022-11-03T11:21:15.220Z,0.00
2022-11-03T11:23:43.786Z,0.00
2022-11-03T11:26:10.808Z,0.10
2022-11-03T11:28:38.814Z,0.40
2022-11-03T11:31:35.567Z,0.10
2022-11-03T11:34:18.508Z,0.10
2022-11-03T11:37:05.764Z,0.43
2022-11-03T11:39:33.929Z,0.70
2022-11-03T11:42:14.603Z,0.10
2022-11-03T11:44:52.840Z,0.00
2022-11-03T11:47:25.731Z,0.20
2022-11-03T11:50:12.117Z,0.10
2022-11-03T11:52:44.265Z,0.10
2022-11-03T11:55:30.322Z,0.10
2022-11-03T11:57:58.311Z,0.15
2022-11-03T12:00:27.130Z,0.10
2022-11-03T12:02:54.129Z,0.10
2022-11-03T12:05:31.983Z,0.30
2022-11-03T12:07:59.136Z,0.00
2022-11-03T12:10:32.492Z,0.10
2022-11-03T12:13:00.000Z,0.10
2022-11-03T12:15:57.931Z,0.00
2022-11-03T12:18:39.085Z,0.00
2022-11-03T12:21:11.297Z,0.55
2022-11-03T12:23:47.161Z,0.03
2022-11-03T12:26:37.548Z,0.00
2022-11-03T12:29:09.233Z,0.10
2022-11-03T12:31:39.830Z,0.00
2022-11-03T12:34:06.764Z,0.00
2022-11-03T12:36:34.033Z,0.03
2022-11-03T12:39:01.082Z,0.08
2022-11-03T12:41:27.988Z,0.00
2022-11-03T12:43:57.738Z,0.22
2022-11-03T12:46:24.821Z,0.00
2022-11-03T12:48:52.463Z,0.05
2022-11-03T12:51:20.881Z,0.00
2022-11-03T12:53:48.111Z,0.05
2022-11-03T12:56:15.492Z,0.00
2022-11-03T12:58:42.624Z,0.05
2022-11-03T13:01:09.833Z,0.00
2022-11-03T13:03:36.841Z,0.00
2022-11-03T13:06:04.715Z,0.00
2022-11-03T13:08:32.048Z,0.00
2022-11-03T13:10:59.064Z,0.00
2022-11-03T13:13:26.861Z,0.00
2022-11-03T13:15:54.967Z,0.00
2022-11-03T13:18:22.498Z,0.00
2022-11-03T13:20:49.606Z,0.10
2022-11-03T13:23:20.252Z,0.00
2022-11-03T13:25:49.947Z,0.00
2022-11-03T13:28:17.021Z,0.00
2022-11-03T13:30:44.098Z,0.00
2022-11-03T13:33:11.172Z,0.00
2022-11-03T13:35:38.424Z,0.00
2022-11-03T13:38:05.367Z,0.00
2022-11-03T13:43:19.420Z,0.00
2022-11-03T13:45:46.479Z,0.00
2022-11-03T13:51:00.650Z,0.00
2022-11-03T14:01:38.244Z,0.00
2022-11-03T14:06:55.299Z,0.00
2022-11-03T14:09:22.425Z,0.15
2022-11-03T14:12:08.769Z,0.00
2022-11-03T14:14:35.925Z,0.10
2022-11-03T14:17:03.002Z,0.00
2022-11-03T14:19:37.973Z,0.00
2022-11-03T14:22:06.789Z,0.00
2022-11-03T14:24:34.733Z,0.08
2022-11-03T14:27:01.739Z,0.00
2022-11-03T14:29:28.664Z,0.00
2022-11-03T14:31:55.829Z,0.20
2022-11-03T14:34:22.840Z,0.10
2022-11-03T14:36:49.890Z,0.00
2022-11-03T14:39:16.848Z,0.08
2022-11-03T14:42:02.436Z,0.10
2022-11-03T14:44:39.229Z,0.00
2022-11-03T14:47:08.887Z,0.10
2022-11-03T14:49:36.454Z,0.10
2022-11-03T14:52:04.453Z,0.00
2022-11-03T14:54:31.645Z,0.00
2022-11-03T14:56:59.177Z,0.10
2022-11-03T14:59:26.105Z,0.00
2022-11-03T15:01:53.753Z,0.00
2022-11-03T15:04:21.538Z,0.25
2022-11-03T15:06:48.645Z,0.08
2022-11-03T15:09:15.849Z,0.00
2022-11-03T15:11:43.252Z,0.00
2022-11-03T15:14:10.737Z,0.00
2022-11-03T15:16:37.815Z,0.05
2022-11-03T15:19:05.660Z,0.00
2022-11-03T15:21:32.748Z,0.00
2022-11-03T15:26:46.782Z,0.10
2022-11-03T15:29:14.165Z,0.00
2022-11-03T15:31:47.269Z,0.00
2022-11-03T15:34:15.394Z,0.08
2022-11-03T15:36:42.453Z,0.00
2022-11-03T15:39:09.589Z,0.00
2022-11-03T15:41:36.668Z,0.03
2022-11-03T15:44:03.603Z,0.00
2022-11-03T15:46:30.523Z,0.00
2022-11-03T15:48:57.837Z,0.10
2022-11-03T15:51:25.230Z,0.00
2022-11-03T15:53:57.771Z,0.00
2022-11-03T15:56:28.705Z,0.10
2022-11-03T15:58:55.688Z,0.00
2022-11-03T16:01:22.819Z,0.00
2022-11-03T16:03:49.932Z,0.08
2022-11-03T16:06:16.972Z,0.00
2022-11-03T16:08:43.867Z,0.00
2022-11-03T16:11:10.872Z,0.00
2022-11-03T16:13:37.755Z,0.00
2022-11-03T16:16:05.072Z,0.10
2022-11-03T16:18:31.947Z,0.03
2022-11-03T16:20:59.040Z,0.10
2022-11-03T16:23:26.006Z,0.10
2022-11-03T16:25:53.472Z,0.10
2022-11-03T16:28:20.464Z,0.10
2022-11-03T16:30:51.244Z,0.10
2022-11-03T16:33:20.906Z,0.10
2022-11-03T16:35:47.796Z,0.00
2022-11-03T16:38:15.465Z,0.00
2022-11-03T16:40:43.100Z,0.00
2022-11-03T16:43:10.117Z,0.10
2022-11-03T16:45:38.178Z,0.00
2022-11-03T16:48:06.427Z,0.00
2022-11-03T16:50:33.714Z,0.10
2022-11-03T16:53:00.844Z,0.10
2022-11-03T16:55:53.057Z,0.30
2022-11-03T16:58:20.094Z,0.10
2022-11-03T17:00:47.091Z,0.10
2022-11-03T17:03:14.189Z,0.20
2022-11-03T17:05:41.076Z,0.10
2022-11-03T17:08:20.474Z,0.10
2022-11-03T17:10:54.982Z,0.10
2022-11-03T17:13:21.899Z,0.10
2022-11-03T17:15:49.473Z,0.10
2022-11-03T17:18:16.333Z,0.10
2022-11-03T17:20:43.437Z,0.10
2022-11-03T17:23:10.502Z,0.10
2022-11-03T17:25:37.663Z,0.10
2022-11-03T17:28:04.904Z,0.10
2022-11-03T17:30:34.142Z,0.10
2022-11-03T17:33:04.992Z,0.38
2022-11-03T17:35:39.516Z,0.15
2022-11-03T17:38:13.565Z,0.10
2022-11-03T17:40:41.358Z,0.10
2022-11-03T17:43:32.173Z,0.10
2022-11-03T17:45:59.104Z,0.35
2022-11-03T17:48:26.059Z,0.43
2022-11-03T17:50:54.461Z,0.20
2022-11-03T17:53:26.442Z,0.98
2022-11-03T17:56:23.321Z,0.82
2022-11-03T17:58:46.568Z,0.30
2022-11-03T18:01:20.485Z,0.20
2022-11-03T18:03:47.587Z,0.10
2022-11-03T18:06:16.404Z,0.47
2022-11-03T18:08:44.768Z,0.25
2022-11-03T18:11:33.287Z,0.20
2022-11-03T18:14:02.577Z,0.20
2022-11-03T18:16:30.424Z,0.10
2022-11-03T18:18:57.665Z,0.10
2022-11-03T18:21:31.278Z,0.10
2022-11-03T18:23:58.850Z,0.10
2022-11-03T18:26:26.466Z,0.10
2022-11-03T18:28:53.980Z,0.82
2022-11-03T18:31:23.520Z,0.10
2022-11-03T18:33:50.714Z,0.20
2022-11-03T18:36:17.765Z,0.30
2022-11-03T18:38:44.987Z,0.22
2022-11-03T18:41:35.337Z,0.45
2022-11-03T18:44:03.050Z,0.40
2022-11-03T18:46:30.419Z,0.17
2022-11-03T18:48:57.527Z,0.28
2022-11-03T18:51:24.518Z,0.20
2022-11-03T18:53:51.639Z,0.77
2022-11-03T18:56:18.672Z,0.22
2022-11-03T18:58:45.729Z,0.60
2022-11-03T19:01:26.070Z,0.40
2022-11-03T19:03:53.534Z,0.38
2022-11-03T19:06:20.694Z,0.65
2022-11-03T19:08:47.664Z,0.20
2022-11-03T19:11:14.638Z,0.35
2022-11-03T19:14:59.505Z,0.52
2022-11-03T19:17:26.422Z,0.60
2022-11-03T19:19:53.776Z,0.75
2022-11-03T19:22:21.930Z,0.80
2022-11-03T19:24:48.974Z,0.60
2022-11-03T19:27:20.543Z,0.93
2022-11-03T19:30:14.038Z,0.47
2022-11-03T19:33:07.445Z,0.57
2022-11-03T19:35:34.999Z,0.47
2022-11-03T19:38:07.160Z,0.73
2022-11-03T19:40:34.517Z,0.40
2022-11-03T19:43:01.469Z,0.28
2022-11-03T19:45:29.119Z,0.30
2022-11-03T19:50:49.683Z,0.32
2022-11-03T19:53:20.400Z,0.20
2022-11-03T19:55:47.337Z,0.38
2022-11-03T19:58:18.105Z,0.52
2022-11-03T20:00:45.427Z,0.32
2022-11-03T20:03:13.180Z,0.40
2022-11-03T20:05:42.869Z,0.77
2022-11-03T20:08:18.074Z,0.70
2022-11-03T20:10:47.528Z,0.57
2022-11-03T20:13:16.332Z,0.40
2022-11-03T20:15:43.465Z,0.28
2022-11-03T20:18:13.643Z,0.30
2022-11-03T20:20:40.632Z,0.20
2022-11-03T20:23:08.848Z,0.40
2022-11-03T20:25:36.433Z,0.38
2022-11-03T20:28:18.221Z,0.40
2022-11-03T20:30:45.554Z,0.22
2022-11-03T20:33:14.471Z,0.50
2022-11-03T20:35:41.760Z,0.50
2022-11-03T20:38:09.937Z,0.52
2022-11-03T20:40:37.521Z,0.68
2022-11-03T20:43:04.452Z,0.50
2022-11-03T20:45:31.634Z,0.60
2022-11-03T20:47:58.575Z,0.82
2022-11-03T20:50:25.790Z,0.70
2022-11-03T20:52:52.717Z,0.40
2022-11-03T20:55:24.438Z,0.50
2022-11-03T20:57:52.706Z,0.77
2022-11-03T21:00:21.912Z,0.88
2022-11-03T21:02:49.954Z,0.63
2022-11-03T21:05:21.277Z,0.60
2022-11-03T21:07:48.488Z,1.30
2022-11-03T21:10:20.351Z,1.60
2022-11-03T21:12:47.803Z,1.10
2022-11-03T21:15:37.740Z,1.02
2022-11-03T21:18:31.942Z,1.35
2022-11-03T21:20:59.162Z,0.77
2022-11-03T21:23:27.518Z,1.13
2022-11-03T21:25:54.677Z,0.95
2022-11-03T21:28:23.067Z,1.20
2022-11-03T21:30:51.127Z,0.60
2022-11-03T21:33:18.523Z,1.35
2022-11-03T21:35:46.078Z,1.13
2022-11-03T21:38:13.543Z,1.02
2022-11-03T21:40:52.361Z,1.15
2022-11-03T21:43:40.730Z,1.17
2022-11-03T21:46:11.112Z,0.73
2022-11-03T21:48:57.535Z,0.60
2022-11-03T21:51:24.784Z,0.90
2022-11-03T21:53:51.725Z,0.25
2022-11-03T21:56:18.695Z,0.30
2022-11-03T21:58:45.639Z,0.30
2022-11-03T22:01:12.852Z,0.75
2022-11-03T22:03:39.946Z,0.70
2022-11-03T22:06:08.351Z,0.40
2022-11-03T22:08:36.016Z,0.50
2022-11-03T22:11:22.626Z,0.20
2022-11-03T22:13:54.845Z,1.45
2022-11-03T22:16:40.798Z,0.75
2022-11-03T22:19:30.786Z,0.10
2022-11-03T22:22:16.846Z,0.10
2022-11-03T22:25:02.532Z,0.10
2022-11-03T22:27:30.665Z,0.00
2022-11-03T22:30:16.718Z,0.10
2022-11-03T22:32:44.619Z,0.00
2022-11-03T22:35:30.768Z,0.15
2022-11-03T22:38:02.443Z,0.10
2022-11-03T22:40:48.365Z,0.20
2022-11-03T22:43:33.586Z,0.00
2022-11-03T22:46:00.540Z,0.00
2022-11-03T22:48:27.817Z,0.00
2022-11-03T22:51:13.208Z,0.10
2022-11-03T22:53:58.562Z,0.30
2022-11-03T22:56:26.449Z,0.10
2022-11-03T22:58:53.757Z,0.20
2022-11-03T23:01:22.311Z,0.00
2022-11-03T23:03:49.580Z,0.00
2022-11-03T23:06:18.421Z,0.10
2022-11-03T23:08:46.362Z,0.00
2022-11-03T23:11:17.016Z,0.10
2022-11-03T23:13:45.022Z,0.13
2022-11-03T23:16:13.973Z,0.03
2022-11-03T23:19:00.032Z,0.05
2022-11-03T23:21:28.248Z,0.10
2022-11-03T23:24:14.218Z,0.10
2022-11-03T23:26:41.236Z,0.20
2022-11-03T23:29:08.266Z,0.17
2022-11-03T23:31:35.843Z,0.20
2022-11-03T23:34:03.426Z,0.20
2022-11-03T23:36:30.427Z,0.43
2022-11-03T23:38:57.642Z,0.55
2022-11-03T23:41:24.776Z,0.50
2022-11-03T23:43:52.085Z,0.28
2022-11-03T23:46:41.559Z,0.30
2022-11-03T23:49:08.569Z,0.57
2022-11-03T23:51:36.109Z,0.47
2022-11-03T23:54:04.222Z,0.40
2022-11-03T23:56:53.068Z,0.52
2022-11-03T23:59:19.966Z,0.25
